Balasiha, Russia
Current Conditions -  °F | °C
As of 12:30 PM on Friday 28 Nov 2014 (Local Time) from UUEE Reporting Station
Broken Clouds Broken Clouds  
Wind Chill:   Ceiling: 10000
Heat Index: 18°   Visibility: 5mi
Dew Point: 12°   Wind: 9mph
Humidity: 79%   Direction: 80°E
Pressure: 30.56"   Gusts: NA
Location:  55.8°N, 37.95°E
Report Text: UUEE 280930Z 08004MPS 8000 BKN100 M08/M11 Q1035 0741015757410157 NOSIG
Loading
Personal Weather Stations






























Interactive Weather Map New forecast layout! Learn more

10-Day Weather Forecast

Advertisements
Track Severe Weather on mobile